createdAt,value
2019-03-24T00:00:16.794Z,92.13
2019-03-24T00:01:16.739Z,91.94
2019-03-24T00:02:16.689Z,91.94
2019-03-24T00:03:16.630Z,92.61
2019-03-24T00:04:16.594Z,92.75
2019-03-24T00:05:16.519Z,92.80
2019-03-24T00:06:16.463Z,92.80
2019-03-24T00:07:16.408Z,92.71
2019-03-24T00:08:16.352Z,92.71
2019-03-24T00:09:16.321Z,92.75
2019-03-24T00:10:16.242Z,93.84
2019-03-24T00:11:16.188Z,93.08
2019-03-24T00:12:16.131Z,92.85
2019-03-24T00:13:16.076Z,93.04
2019-03-24T00:14:16.044Z,93.41
2019-03-24T00:15:25.733Z,93.32
2019-03-24T00:16:15.914Z,93.32
2019-03-24T00:17:15.863Z,93.13
2019-03-24T00:18:15.807Z,93.13
2019-03-24T00:19:15.767Z,93.99
2019-03-24T00:20:15.692Z,93.23
2019-03-24T00:21:15.636Z,93.04
2019-03-24T00:22:15.581Z,92.94
2019-03-24T00:23:15.525Z,93.32
2019-03-24T00:24:15.501Z,93.32
2019-03-24T00:25:15.417Z,93.41
2019-03-24T00:26:15.360Z,93.99
2019-03-24T00:27:15.304Z,93.04
2019-03-24T00:28:15.250Z,93.13
2019-03-24T00:29:15.217Z,93.99
2019-03-24T00:30:15.142Z,93.23
2019-03-24T00:31:15.079Z,93.89
2019-03-24T00:32:15.029Z,93.41
2019-03-24T00:33:14.971Z,93.51
2019-03-24T00:34:14.940Z,93.41
2019-03-24T00:35:14.860Z,93.51
2019-03-24T00:36:14.805Z,93.51
2019-03-24T00:37:14.752Z,93.60
2019-03-24T00:38:14.695Z,93.70
2019-03-24T00:39:14.664Z,93.51
2019-03-24T00:40:14.584Z,93.41
2019-03-24T00:41:14.529Z,93.51
2019-03-24T00:42:14.473Z,93.41
2019-03-24T00:43:14.422Z,94.08
2019-03-24T00:44:14.390Z,94.08
2019-03-24T00:45:14.308Z,94.08
2019-03-24T00:46:14.256Z,93.99
2019-03-24T00:47:14.197Z,93.80
2019-03-24T00:48:14.138Z,94.27
2019-03-24T00:49:14.110Z,94.27
2019-03-24T00:50:14.030Z,93.89
2019-03-24T00:51:13.975Z,94.27
2019-03-24T00:52:13.920Z,94.27
2019-03-24T00:53:13.863Z,94.08
2019-03-24T00:54:13.808Z,93.80
2019-03-24T00:55:13.777Z,93.99
2019-03-24T00:56:13.699Z,94.46
2019-03-24T00:57:13.643Z,94.65
2019-03-24T00:58:13.590Z,94.27
2019-03-24T00:59:13.534Z,94.46
2019-03-24T01:00:13.497Z,94.56
2019-03-24T01:01:13.423Z,94.93
2019-03-24T01:02:13.365Z,94.65
2019-03-24T01:03:13.310Z,94.56
2019-03-24T01:04:13.255Z,94.65
2019-03-24T01:05:13.223Z,95.12
2019-03-24T01:06:13.148Z,95.12
2019-03-24T01:07:13.085Z,95.31
2019-03-24T01:08:13.029Z,95.22
2019-03-24T01:09:12.978Z,95.03
2019-03-24T01:10:12.946Z,95.12
2019-03-24T01:11:12.859Z,95.03
2019-03-24T01:12:12.804Z,95.03
2019-03-24T01:13:12.757Z,95.31
2019-03-24T01:14:12.701Z,95.51
2019-03-24T01:15:12.665Z,95.31
2019-03-24T01:16:12.614Z,95.31
2019-03-24T01:17:12.531Z,95.31
2019-03-24T01:18:12.478Z,95.12
2019-03-24T01:19:12.424Z,95.03
2019-03-24T01:20:12.389Z,95.12
2019-03-24T01:21:12.309Z,95.22
2019-03-24T01:22:12.258Z,95.03
2019-03-24T01:23:12.198Z,95.22
2019-03-24T01:24:12.143Z,95.03
2019-03-24T01:25:12.111Z,95.03
2019-03-24T01:26:12.033Z,95.03
2019-03-24T01:27:11.984Z,95.31
2019-03-24T01:28:11.922Z,94.84
2019-03-24T01:29:11.866Z,94.84
2019-03-24T01:30:11.834Z,94.84
2019-03-24T01:31:11.755Z,94.84
2019-03-24T01:32:11.699Z,94.84
2019-03-24T01:33:11.647Z,95.22
2019-03-24T01:34:11.589Z,94.93
2019-03-24T01:35:11.557Z,94.93
2019-03-24T01:36:11.478Z,94.84
2019-03-24T01:37:11.424Z,94.93
2019-03-24T01:38:11.369Z,94.93
2019-03-24T01:39:11.318Z,95.12
2019-03-24T01:40:11.284Z,94.84
2019-03-24T01:41:11.199Z,94.84
2019-03-24T01:42:11.147Z,94.93
2019-03-24T01:43:11.090Z,94.93
2019-03-24T01:44:11.037Z,94.84
2019-03-24T01:45:11.001Z,94.84
2019-03-24T01:46:10.924Z,94.93
2019-03-24T01:47:10.869Z,95.03
2019-03-24T01:48:10.813Z,94.93
2019-03-24T01:49:10.759Z,94.84
2019-03-24T01:50:10.727Z,94.84
2019-03-24T01:51:10.643Z,95.12
2019-03-24T01:52:10.595Z,94.84
2019-03-24T01:53:10.537Z,95.31
2019-03-24T01:54:10.480Z,95.03
2019-03-24T01:55:10.449Z,95.22
2019-03-24T01:56:10.370Z,94.93
2019-03-24T01:57:10.315Z,94.93
2019-03-24T01:58:10.259Z,94.74
2019-03-24T01:59:10.204Z,95.12
2019-03-24T02:00:10.173Z,95.03
2019-03-24T02:01:10.094Z,95.12
2019-03-24T02:02:10.038Z,95.22
2019-03-24T02:03:09.999Z,95.31
2019-03-24T02:04:09.927Z,95.03
2019-03-24T02:05:09.894Z,95.79
2019-03-24T02:06:09.818Z,95.70
2019-03-24T02:07:09.767Z,95.51
2019-03-24T02:08:09.710Z,95.31
2019-03-24T02:09:09.651Z,95.46
2019-03-24T02:10:09.619Z,95.27
2019-03-24T02:11:09.543Z,95.31
2019-03-24T02:12:09.488Z,95.70
2019-03-24T02:13:09.450Z,95.79
2019-03-24T02:14:09.379Z,95.51
2019-03-24T02:15:09.338Z,95.41
2019-03-24T02:16:09.744Z,95.51
2019-03-24T02:17:09.199Z,95.46
2019-03-24T02:18:09.152Z,95.93
2019-03-24T02:19:09.097Z,95.65
2019-03-24T02:20:09.065Z,95.79
2019-03-24T02:21:08.986Z,95.89
2019-03-24T02:22:08.930Z,95.65
2019-03-24T02:23:08.870Z,95.65
2019-03-24T02:24:08.815Z,95.65
2019-03-24T02:25:08.786Z,95.93
2019-03-24T02:26:08.704Z,95.84
2019-03-24T02:27:08.650Z,95.46
2019-03-24T02:28:08.594Z,95.46
2019-03-24T02:29:08.544Z,95.36
2019-03-24T02:30:08.528Z,95.55
2019-03-24T02:31:08.432Z,95.46
2019-03-24T02:32:08.377Z,95.36
2019-03-24T02:33:08.317Z,95.84
2019-03-24T02:34:08.265Z,96.03
2019-03-24T02:35:08.231Z,96.41
2019-03-24T02:36:08.154Z,96.12
2019-03-24T02:37:08.096Z,95.74
2019-03-24T02:38:08.040Z,95.84
2019-03-24T02:39:07.989Z,96.03
2019-03-24T02:40:07.961Z,95.74
2019-03-24T02:41:07.874Z,95.93
2019-03-24T02:42:07.819Z,96.22
2019-03-24T02:43:07.771Z,95.84
2019-03-24T02:44:07.710Z,95.74
2019-03-24T02:45:07.680Z,95.93
2019-03-24T02:46:07.600Z,95.93
2019-03-24T02:47:07.541Z,96.12
2019-03-24T02:48:07.479Z,96.03
2019-03-24T02:49:07.431Z,96.03
2019-03-24T02:50:07.406Z,96.78
2019-03-24T02:51:07.319Z,96.03
2019-03-24T02:52:07.259Z,96.50
2019-03-24T02:53:07.206Z,95.93
2019-03-24T02:54:07.150Z,95.46
2019-03-24T02:55:07.114Z,95.84
2019-03-24T02:56:07.043Z,95.74
2019-03-24T02:57:06.983Z,96.78
2019-03-24T02:58:06.927Z,96.78
2019-03-24T02:59:06.872Z,96.50
2019-03-24T03:00:06.867Z,96.59
2019-03-24T03:01:06.761Z,96.50
2019-03-24T03:02:06.723Z,96.50
2019-03-24T03:03:06.647Z,96.50
2019-03-24T03:04:06.593Z,96.31
2019-03-24T03:05:06.584Z,96.45
2019-03-24T03:06:06.484Z,96.45
2019-03-24T03:07:06.426Z,96.22
2019-03-24T03:08:06.369Z,96.59
2019-03-24T03:09:06.321Z,96.55
2019-03-24T03:10:06.275Z,96.08
2019-03-24T03:11:06.228Z,95.98
2019-03-24T03:12:06.145Z,96.59
2019-03-24T03:13:06.097Z,96.73
2019-03-24T03:14:06.035Z,96.50
2019-03-24T03:15:05.979Z,96.50
2019-03-24T03:16:05.947Z,96.64
2019-03-24T03:17:05.871Z,96.55
2019-03-24T03:18:05.816Z,95.41
2019-03-24T03:19:05.766Z,96.50
2019-03-24T03:20:05.705Z,95.36
2019-03-24T03:21:05.667Z,96.45
2019-03-24T03:22:05.600Z,96.36
2019-03-24T03:23:05.532Z,96.41
2019-03-24T03:24:05.493Z,96.36
2019-03-24T03:25:05.419Z,95.60
2019-03-24T03:26:05.395Z,96.45
2019-03-24T03:27:05.328Z,96.17
2019-03-24T03:28:05.259Z,95.69
2019-03-24T03:29:05.264Z,95.60
2019-03-24T03:30:05.150Z,96.55
2019-03-24T03:31:05.116Z,96.36
2019-03-24T03:32:05.093Z,96.55
2019-03-24T03:33:04.979Z,96.45
2019-03-24T03:34:04.919Z,96.36
2019-03-24T03:35:04.865Z,96.45
2019-03-24T03:36:04.848Z,96.36
2019-03-24T03:37:04.750Z,96.36
2019-03-24T03:38:04.703Z,95.60
2019-03-24T03:39:04.644Z,96.26
2019-03-24T03:40:04.601Z,95.69
2019-03-24T03:41:04.551Z,95.60
2019-03-24T03:42:04.478Z,95.69
2019-03-24T03:43:04.418Z,95.60
2019-03-24T03:44:04.360Z,95.69
2019-03-24T03:45:04.306Z,95.60
2019-03-24T03:46:04.281Z,96.36
2019-03-24T03:47:04.194Z,96.36
2019-03-24T03:48:04.165Z,96.73
2019-03-24T03:49:04.095Z,96.55
2019-03-24T03:50:04.023Z,95.69
2019-03-24T03:51:04.012Z,95.98
2019-03-24T03:52:03.934Z,95.79
2019-03-24T03:53:03.863Z,96.45
2019-03-24T03:54:03.810Z,96.08
2019-03-24T03:55:03.750Z,95.60
2019-03-24T03:56:03.727Z,96.08
2019-03-24T03:57:03.656Z,95.60
2019-03-24T03:58:03.586Z,96.36
2019-03-24T03:59:03.526Z,95.79
2019-03-24T04:00:03.469Z,96.45
2019-03-24T04:01:03.433Z,95.69
2019-03-24T04:02:03.356Z,95.60
2019-03-24T04:03:03.323Z,96.36
2019-03-24T04:04:03.274Z,96.26
2019-03-24T04:05:03.190Z,95.98
2019-03-24T04:06:03.192Z,95.69
2019-03-24T04:07:03.088Z,96.45
2019-03-24T04:08:03.013Z,96.45
2019-03-24T04:09:02.969Z,96.73
2019-03-24T04:10:02.912Z,96.64
2019-03-24T04:11:02.874Z,95.50
2019-03-24T04:12:02.795Z,96.45
2019-03-24T04:13:02.754Z,96.55
2019-03-24T04:14:02.687Z,96.36
2019-03-24T04:15:02.654Z,96.55
2019-03-24T04:16:02.597Z,96.45
2019-03-24T04:17:07.501Z,96.55
2019-03-24T04:18:02.469Z,96.45
2019-03-24T04:19:02.425Z,96.55
2019-03-24T04:20:02.356Z,96.08
2019-03-24T04:21:02.318Z,96.45
2019-03-24T04:22:02.241Z,96.55
2019-03-24T04:23:02.185Z,96.55
2019-03-24T04:24:02.124Z,95.69
2019-03-24T04:25:02.072Z,96.45
2019-03-24T04:26:02.038Z,96.55
2019-03-24T04:27:01.959Z,96.45
2019-03-24T04:28:01.909Z,96.08
2019-03-24T04:29:01.848Z,96.45
2019-03-24T04:30:01.795Z,95.41
2019-03-24T04:31:01.761Z,95.69
2019-03-24T04:32:01.684Z,95.69
2019-03-24T04:33:01.658Z,96.55
2019-03-24T04:34:01.574Z,96.36
2019-03-24T04:35:01.552Z,96.36
2019-03-24T04:36:01.485Z,96.26
2019-03-24T04:37:01.400Z,96.45
2019-03-24T04:38:01.341Z,96.36
2019-03-24T04:39:01.305Z,95.41
2019-03-24T04:40:01.231Z,96.55
2019-03-24T04:41:01.198Z,95.60
2019-03-24T04:42:01.119Z,96.45
2019-03-24T04:43:01.138Z,96.55
2019-03-24T04:44:01.008Z,96.17
2019-03-24T04:45:00.949Z,96.36
2019-03-24T04:46:00.923Z,96.26
2019-03-24T04:47:00.842Z,96.45
2019-03-24T04:48:00.791Z,96.73
2019-03-24T04:49:00.729Z,96.36
2019-03-24T04:50:00.672Z,96.36
2019-03-24T04:51:00.637Z,96.55
2019-03-24T04:52:00.557Z,96.36
2019-03-24T04:53:00.502Z,96.64
2019-03-24T04:54:00.442Z,96.55
2019-03-24T04:55:00.391Z,96.45
2019-03-24T04:56:00.355Z,96.26
2019-03-24T04:57:00.301Z,96.36
2019-03-24T04:58:00.230Z,96.36
2019-03-24T04:59:00.170Z,96.36
2019-03-24T05:00:00.172Z,95.69
2019-03-24T05:01:00.078Z,96.26
2019-03-24T05:01:59.995Z,95.69
2019-03-24T05:02:59.952Z,95.69
2019-03-24T05:03:59.885Z,96.55
2019-03-24T05:04:59.829Z,95.69
2019-03-24T05:05:59.797Z,96.36
2019-03-24T05:06:59.719Z,95.79
2019-03-24T05:07:59.654Z,96.83
2019-03-24T05:08:59.603Z,96.55
2019-03-24T05:09:59.549Z,96.55
2019-03-24T05:10:59.512Z,95.79
2019-03-24T05:11:59.441Z,95.88
2019-03-24T05:12:59.384Z,95.69
2019-03-24T05:13:59.322Z,95.88
2019-03-24T05:14:59.268Z,95.88
2019-03-24T05:15:59.235Z,95.79
2019-03-24T05:16:59.156Z,95.31
2019-03-24T05:17:59.102Z,96.55
2019-03-24T05:18:59.041Z,95.88
2019-03-24T05:19:58.989Z,96.36
2019-03-24T05:20:58.995Z,95.60
2019-03-24T05:21:58.877Z,96.55
2019-03-24T05:22:58.817Z,96.08
2019-03-24T05:23:58.763Z,95.98
2019-03-24T05:24:58.709Z,95.79
2019-03-24T05:25:58.675Z,95.98
2019-03-24T05:26:58.635Z,95.98
2019-03-24T05:27:58.535Z,96.55
2019-03-24T05:28:58.483Z,96.64
2019-03-24T05:29:58.428Z,95.60
2019-03-24T05:30:58.410Z,95.60
2019-03-24T05:31:58.317Z,96.64
2019-03-24T05:32:58.257Z,96.83
2019-03-24T05:33:58.202Z,95.79
2019-03-24T05:34:58.143Z,95.88
2019-03-24T05:35:58.115Z,96.45
2019-03-24T05:36:58.037Z,95.88
2019-03-24T05:37:57.981Z,96.45
2019-03-24T05:38:57.921Z,95.98
2019-03-24T05:39:57.861Z,96.45
2019-03-24T05:40:57.836Z,96.08
2019-03-24T05:41:57.754Z,95.79
2019-03-24T05:42:57.699Z,95.88
2019-03-24T05:43:57.640Z,95.79
2019-03-24T05:44:57.581Z,95.88
2019-03-24T05:45:57.554Z,96.36
2019-03-24T05:46:57.476Z,95.98
2019-03-24T05:47:57.419Z,95.79
2019-03-24T05:48:57.363Z,95.88
2019-03-24T05:49:57.309Z,95.84
2019-03-24T05:50:57.293Z,96.73
2019-03-24T05:51:57.194Z,95.55
2019-03-24T05:52:57.137Z,96.17
2019-03-24T05:53:57.084Z,96.55
2019-03-24T05:54:57.020Z,96.64
2019-03-24T05:55:56.968Z,96.73
2019-03-24T05:56:56.939Z,96.83
2019-03-24T05:57:56.857Z,96.73
2019-03-24T05:58:56.797Z,96.83
2019-03-24T05:59:56.746Z,96.50
2019-03-24T06:00:56.691Z,96.59
2019-03-24T06:01:56.659Z,96.59
2019-03-24T06:02:57.368Z,96.83
2019-03-24T06:03:56.520Z,96.55
2019-03-24T06:04:56.465Z,96.55
2019-03-24T06:05:56.412Z,95.98
2019-03-24T06:06:56.374Z,96.55
2019-03-24T06:07:56.291Z,95.79
2019-03-24T06:08:56.247Z,95.88
2019-03-24T06:09:56.180Z,95.79
2019-03-24T06:10:56.129Z,96.08
2019-03-24T06:11:56.101Z,95.79
2019-03-24T06:12:56.018Z,95.79
2019-03-24T06:13:55.963Z,96.08
2019-03-24T06:14:55.899Z,96.08
2019-03-24T06:15:55.848Z,96.08
2019-03-24T06:16:55.817Z,95.60
2019-03-24T06:17:55.737Z,95.31
2019-03-24T06:18:55.687Z,95.22
2019-03-24T06:19:55.631Z,95.60
2019-03-24T06:20:55.571Z,95.41
2019-03-24T06:21:55.542Z,95.60
2019-03-24T06:22:55.461Z,95.50
2019-03-24T06:23:55.406Z,95.79
2019-03-24T06:24:55.344Z,95.60
2019-03-24T06:25:55.303Z,95.12
2019-03-24T06:26:55.263Z,95.12
2019-03-24T06:27:55.177Z,95.12
2019-03-24T06:28:55.123Z,95.60
2019-03-24T06:29:55.068Z,95.22
2019-03-24T06:30:55.016Z,95.60
2019-03-24T06:31:54.981Z,95.03
2019-03-24T06:32:54.902Z,95.03
2019-03-24T06:33:54.847Z,95.03
2019-03-24T06:34:54.789Z,95.03
2019-03-24T06:35:54.733Z,94.93
2019-03-24T06:36:54.701Z,94.93
2019-03-24T06:37:54.621Z,94.89
2019-03-24T06:38:54.566Z,94.13
2019-03-24T06:39:54.511Z,94.13
2019-03-24T06:40:54.458Z,94.13
2019-03-24T06:41:54.425Z,94.32
2019-03-24T06:42:54.347Z,94.13
2019-03-24T06:43:54.292Z,93.84
2019-03-24T06:44:54.234Z,94.23
2019-03-24T06:45:54.178Z,94.23
2019-03-24T06:46:54.146Z,93.84
2019-03-24T06:47:58.041Z,94.13
2019-03-24T06:48:54.012Z,94.03
2019-03-24T06:49:53.956Z,94.03
2019-03-24T06:50:53.918Z,94.13
2019-03-24T06:51:53.870Z,94.32
2019-03-24T06:52:53.791Z,94.42
2019-03-24T06:53:53.736Z,94.13
2019-03-24T06:54:53.680Z,94.32
2019-03-24T06:55:53.624Z,93.84
2019-03-24T06:56:53.593Z,93.37
2019-03-24T06:57:53.514Z,93.65
2019-03-24T06:58:53.460Z,94.03
2019-03-24T06:59:53.403Z,93.84
2019-03-24T07:00:53.349Z,93.56
2019-03-24T07:01:53.320Z,93.84
2019-03-24T07:02:53.237Z,93.18
2019-03-24T07:03:53.181Z,92.71
2019-03-24T07:04:53.126Z,92.99
2019-03-24T07:05:53.078Z,92.99
2019-03-24T07:06:53.045Z,92.71
2019-03-24T07:07:52.964Z,93.32
2019-03-24T07:08:52.908Z,93.32
2019-03-24T07:09:52.853Z,93.23
2019-03-24T07:10:52.794Z,92.85
2019-03-24T07:11:52.768Z,91.99
2019-03-24T07:12:52.686Z,92.37
2019-03-24T07:13:52.632Z,92.18
2019-03-24T07:14:52.572Z,92.09
2019-03-24T07:15:52.520Z,91.99
2019-03-24T07:16:52.496Z,91.85
2019-03-24T07:17:52.411Z,92.09
2019-03-24T07:18:52.352Z,91.28
2019-03-24T07:19:52.303Z,91.28
2019-03-24T07:20:52.249Z,90.90
2019-03-24T07:21:52.216Z,90.52
2019-03-24T07:22:52.137Z,90.71
2019-03-24T07:23:52.082Z,90.80
2019-03-24T07:24:52.031Z,90.52
2019-03-24T07:25:51.975Z,90.90
2019-03-24T07:26:51.951Z,90.52
2019-03-24T07:27:51.864Z,90.71
2019-03-24T07:28:51.826Z,90.42
2019-03-24T07:29:51.757Z,90.80
2019-03-24T07:30:51.698Z,90.71
2019-03-24T07:31:51.673Z,90.61
2019-03-24T07:32:51.595Z,90.52
2019-03-24T07:33:51.540Z,89.76
2019-03-24T07:34:51.490Z,89.57
2019-03-24T07:35:51.429Z,89.86
2019-03-24T07:36:51.402Z,89.28
2019-03-24T07:37:51.322Z,90.05
2019-03-24T07:38:51.274Z,89.95
2019-03-24T07:39:51.215Z,90.42
2019-03-24T07:40:51.160Z,89.86
2019-03-24T07:41:51.136Z,90.23
2019-03-24T07:42:51.052Z,90.09
2019-03-24T07:43:51.001Z,89.52
2019-03-24T07:44:50.946Z,89.04
2019-03-24T07:45:50.893Z,89.04
2019-03-24T07:46:50.859Z,89.09
2019-03-24T07:47:50.784Z,89.61
2019-03-24T07:48:50.728Z,89.76
2019-03-24T07:49:50.682Z,89.71
2019-03-24T07:50:50.623Z,89.28
2019-03-24T07:51:50.592Z,90.33
2019-03-24T07:52:50.515Z,90.23
2019-03-24T07:53:50.460Z,90.71
2019-03-24T07:54:50.407Z,90.42
2019-03-24T07:55:50.350Z,90.33
2019-03-24T07:56:50.323Z,90.42
2019-03-24T07:57:50.284Z,90.80
2019-03-24T07:58:50.195Z,90.90
2019-03-24T07:59:50.139Z,90.71
2019-03-24T08:00:50.087Z,90.23
2019-03-24T08:01:50.057Z,89.95
2019-03-24T08:02:51.251Z,89.86
2019-03-24T08:03:49.925Z,89.76
2019-03-24T08:04:49.867Z,89.76
2019-03-24T08:05:49.815Z,90.05
2019-03-24T08:06:49.789Z,89.52
2019-03-24T08:07:49.703Z,89.04
2019-03-24T08:08:49.650Z,89.71
2019-03-24T08:09:49.593Z,88.85
2019-03-24T08:10:49.547Z,88.38
2019-03-24T08:11:49.516Z,88.00
2019-03-24T08:12:49.510Z,87.81
2019-03-24T08:13:54.045Z,88.19
2019-03-24T08:14:49.331Z,88.00
2019-03-24T08:15:49.275Z,88.09
2019-03-24T08:16:49.245Z,88.09
2019-03-24T08:17:49.167Z,88.19
2019-03-24T08:18:49.112Z,87.90
2019-03-24T08:19:49.060Z,87.34
2019-03-24T08:20:49.008Z,87.62
2019-03-24T08:21:48.976Z,87.90
2019-03-24T08:22:48.906Z,87.81
2019-03-24T08:23:48.842Z,88.57
2019-03-24T08:24:48.795Z,88.09
2019-03-24T08:25:48.739Z,88.76
2019-03-24T08:26:48.707Z,88.09
2019-03-24T08:27:48.632Z,88.38
2019-03-24T08:28:48.581Z,88.09
2019-03-24T08:29:48.529Z,88.85
2019-03-24T08:30:48.478Z,88.52
2019-03-24T08:31:48.442Z,88.33
2019-03-24T08:32:48.366Z,88.13
2019-03-24T08:33:48.313Z,88.42
2019-03-24T08:34:48.510Z,88.67
2019-03-24T08:35:48.220Z,88.57
2019-03-24T08:36:48.174Z,89.42
2019-03-24T08:37:48.098Z,89.71
2019-03-24T08:38:48.041Z,89.80
2019-03-24T08:39:47.996Z,90.75
2019-03-24T08:40:47.939Z,90.42
2019-03-24T08:41:47.911Z,90.56
2019-03-24T08:42:47.829Z,90.66
2019-03-24T08:43:47.779Z,90.56
2019-03-24T08:44:47.723Z,91.23
2019-03-24T08:45:47.672Z,91.33
2019-03-24T08:46:47.641Z,90.94
2019-03-24T08:47:47.599Z,90.47
2019-03-24T08:48:47.515Z,89.33
2019-03-24T08:49:47.457Z,89.71
2019-03-24T08:50:47.398Z,88.57
2019-03-24T08:51:47.369Z,89.14
2019-03-24T08:52:47.292Z,88.67
2019-03-24T08:53:47.240Z,88.85
2019-03-24T08:54:47.180Z,89.28
2019-03-24T08:55:47.130Z,87.85
2019-03-24T08:56:47.104Z,86.99
2019-03-24T08:57:47.025Z,87.47
2019-03-24T08:58:46.970Z,87.76
2019-03-24T08:59:46.916Z,87.66
2019-03-24T09:00:46.860Z,86.99
2019-03-24T09:01:46.834Z,86.24
2019-03-24T09:02:46.755Z,87.28
2019-03-24T09:03:46.702Z,86.61
2019-03-24T09:04:46.648Z,86.14
2019-03-24T09:05:46.595Z,85.52
2019-03-24T09:06:46.566Z,85.86
2019-03-24T09:07:46.489Z,85.95
2019-03-24T09:08:48.867Z,85.90
2019-03-24T09:09:46.383Z,86.76
2019-03-24T09:10:46.332Z,86.09
2019-03-24T09:11:46.279Z,86.38
2019-03-24T09:12:46.249Z,85.52
2019-03-24T09:13:46.168Z,84.95
2019-03-24T09:14:46.114Z,85.24
2019-03-24T09:15:46.062Z,85.24
2019-03-24T09:16:46.015Z,84.85
2019-03-24T09:17:46.014Z,84.76
2019-03-24T09:18:52.671Z,84.19
2019-03-24T09:19:45.849Z,83.81
2019-03-24T09:20:45.797Z,83.90
2019-03-24T09:21:45.745Z,84.95
2019-03-24T09:22:45.722Z,84.76
2019-03-24T09:23:45.646Z,83.90
2019-03-24T09:24:45.607Z,84.28
2019-03-24T09:25:45.536Z,83.62
2019-03-24T09:26:45.481Z,83.14
2019-03-24T09:27:45.454Z,83.14
2019-03-24T09:28:45.377Z,84.19
2019-03-24T09:29:45.333Z,83.33
2019-03-24T09:30:45.270Z,82.23
2019-03-24T09:31:45.219Z,81.85
2019-03-24T09:32:45.190Z,81.18
2019-03-24T09:33:45.109Z,82.23
2019-03-24T09:34:45.053Z,83.28
2019-03-24T09:35:45.002Z,83.37
2019-03-24T09:36:44.954Z,83.09
2019-03-24T09:37:44.972Z,82.23
2019-03-24T09:38:44.852Z,81.76
2019-03-24T09:39:44.804Z,82.04
2019-03-24T09:40:44.745Z,80.94
2019-03-24T09:41:44.694Z,81.23
2019-03-24T09:42:44.666Z,80.84
2019-03-24T09:43:44.587Z,79.89
2019-03-24T09:44:44.532Z,80.27
2019-03-24T09:45:44.484Z,79.13
2019-03-24T09:46:44.428Z,78.85
2019-03-24T09:47:44.402Z,78.94
2019-03-24T09:48:44.330Z,78.56
2019-03-24T09:49:44.277Z,79.03
2019-03-24T09:50:44.232Z,79.89
2019-03-24T09:51:44.177Z,81.03
2019-03-24T09:52:44.143Z,80.75
2019-03-24T09:53:44.064Z,79.89
2019-03-24T09:54:44.010Z,79.32
2019-03-24T09:55:43.962Z,78.65
2019-03-24T09:56:43.911Z,77.89
2019-03-24T09:57:43.883Z,78.56
2019-03-24T09:58:43.809Z,79.07
2019-03-24T09:59:43.767Z,78.65
2019-03-24T10:00:43.702Z,77.64
2019-03-24T10:01:43.650Z,78.03
2019-03-24T10:02:43.640Z,77.45
2019-03-24T10:03:43.549Z,78.59
2019-03-24T10:04:43.499Z,78.69
2019-03-24T10:05:43.448Z,79.17
2019-03-24T10:06:43.395Z,77.93
2019-03-24T10:07:43.413Z,77.74
2019-03-24T10:08:47.346Z,75.60
2019-03-24T10:09:43.238Z,76.59
2019-03-24T10:10:43.183Z,77.45
2019-03-24T10:11:43.139Z,77.45
2019-03-24T10:12:43.079Z,77.26
2019-03-24T10:13:43.049Z,77.07
2019-03-24T10:14:42.986Z,75.93
2019-03-24T10:15:43.021Z,75.64
2019-03-24T10:16:42.898Z,74.69
2019-03-24T10:17:42.830Z,74.40
2019-03-24T10:18:42.805Z,73.45
2019-03-24T10:19:42.720Z,72.88
2019-03-24T10:20:42.666Z,72.88
2019-03-24T10:21:42.618Z,72.41
2019-03-24T10:22:42.566Z,71.93
2019-03-24T10:23:42.543Z,73.45
2019-03-24T10:24:42.464Z,72.97
2019-03-24T10:25:42.408Z,74.12
2019-03-24T10:26:42.369Z,74.21
2019-03-24T10:27:42.317Z,74.50
2019-03-24T10:28:42.282Z,75.16
2019-03-24T10:29:42.206Z,75.84
2019-03-24T10:30:42.230Z,76.69
2019-03-24T10:31:42.684Z,75.36
2019-03-24T10:32:42.053Z,73.83
2019-03-24T10:33:42.022Z,73.74
2019-03-24T10:34:41.942Z,75.36
2019-03-24T10:35:41.895Z,75.55
2019-03-24T10:36:41.843Z,74.88
2019-03-24T10:37:41.791Z,75.55
2019-03-24T10:38:41.764Z,75.26
2019-03-24T10:39:41.682Z,74.79
2019-03-24T10:40:41.638Z,74.21
2019-03-24T10:41:41.586Z,74.40
2019-03-24T10:42:41.536Z,73.55
2019-03-24T10:43:41.507Z,72.41
2019-03-24T10:44:41.430Z,72.78
2019-03-24T10:45:41.380Z,73.45
2019-03-24T10:46:41.329Z,73.83
2019-03-24T10:47:41.278Z,73.45
2019-03-24T10:48:41.242Z,73.07
2019-03-24T10:49:41.171Z,72.21
2019-03-24T10:50:41.115Z,73.55
2019-03-24T10:51:41.064Z,73.17
2019-03-24T10:52:41.009Z,72.78
2019-03-24T10:53:40.981Z,73.26
2019-03-24T10:54:40.914Z,72.88
2019-03-24T10:55:40.864Z,73.45
2019-03-24T10:56:40.803Z,73.74
2019-03-24T10:57:40.753Z,74.79
2019-03-24T10:58:40.724Z,74.40
2019-03-24T10:59:40.649Z,72.78
2019-03-24T11:00:40.598Z,72.02
2019-03-24T11:01:40.550Z,71.83
2019-03-24T11:02:40.490Z,72.02
2019-03-24T11:03:40.467Z,70.78
2019-03-24T11:04:40.388Z,71.55
2019-03-24T11:05:40.341Z,71.64
2019-03-24T11:06:40.289Z,70.40
2019-03-24T11:07:40.279Z,69.93
2019-03-24T11:08:40.206Z,70.21
2019-03-24T11:09:40.131Z,70.59
2019-03-24T11:10:40.076Z,70.97
2019-03-24T11:11:40.025Z,72.63
2019-03-24T11:12:39.973Z,72.82
2019-03-24T11:13:39.945Z,72.06
2019-03-24T11:14:39.871Z,70.82
2019-03-24T11:15:39.814Z,70.63
2019-03-24T11:16:39.767Z,68.53
2019-03-24T11:17:39.717Z,68.34
2019-03-24T11:18:39.689Z,68.12
2019-03-24T11:19:39.608Z,68.02
2019-03-24T11:20:39.563Z,68.78
2019-03-24T11:21:39.516Z,69.83
2019-03-24T11:22:39.465Z,69.83
2019-03-24T11:23:39.430Z,67.35
2019-03-24T11:24:39.364Z,68.05
2019-03-24T11:25:39.305Z,68.15
2019-03-24T11:26:39.254Z,66.34
2019-03-24T11:27:39.224Z,66.82
2019-03-24T11:28:39.179Z,66.82
2019-03-24T11:29:39.115Z,66.53
2019-03-24T11:30:39.068Z,66.91
2019-03-24T11:31:39.024Z,66.05
2019-03-24T11:32:38.950Z,64.91
2019-03-24T11:33:38.899Z,65.13
2019-03-24T11:34:38.872Z,66.56
2019-03-24T11:35:38.797Z,65.52
2019-03-24T11:36:38.744Z,65.80
2019-03-24T11:37:38.797Z,65.33
2019-03-24T11:38:38.642Z,65.04
2019-03-24T11:39:38.612Z,65.23
2019-03-24T11:40:38.546Z,64.18
2019-03-24T11:41:38.487Z,64.75
2019-03-24T11:42:38.436Z,63.70
2019-03-24T11:43:38.390Z,63.99
2019-03-24T11:44:38.360Z,64.94
2019-03-24T11:45:38.293Z,65.17
2019-03-24T11:46:38.234Z,64.31
2019-03-24T11:47:38.184Z,66.60
2019-03-24T11:48:38.142Z,65.17
2019-03-24T11:49:45.681Z,64.02
2019-03-24T11:50:38.038Z,64.02
2019-03-24T11:51:37.981Z,62.84
2019-03-24T11:52:37.926Z,62.37
2019-03-24T11:53:37.878Z,63.13
2019-03-24T11:54:37.843Z,63.10
2019-03-24T11:55:37.783Z,63.57
2019-03-24T11:56:37.728Z,64.24
2019-03-24T11:57:37.681Z,64.91
2019-03-24T11:58:37.640Z,64.34
2019-03-24T11:59:37.605Z,64.53
2019-03-24T12:00:37.526Z,64.72
2019-03-24T12:01:38.387Z,65.86
2019-03-24T12:02:37.424Z,66.85
2019-03-24T12:03:37.373Z,66.47
2019-03-24T12:04:37.341Z,67.42
2019-03-24T12:05:37.269Z,67.99
2019-03-24T12:06:37.215Z,67.90
2019-03-24T12:07:37.169Z,67.23
2019-03-24T12:08:38.845Z,66.85
2019-03-24T12:09:37.092Z,66.18
2019-03-24T12:10:37.019Z,66.38
2019-03-24T12:11:36.970Z,67.61
2019-03-24T12:12:36.914Z,66.85
2019-03-24T12:13:36.862Z,66.85
2019-03-24T12:14:36.840Z,67.14
2019-03-24T12:15:36.759Z,67.14
2019-03-24T12:16:36.720Z,65.80
2019-03-24T12:17:36.658Z,65.89
2019-03-24T12:18:36.605Z,67.04
2019-03-24T12:19:36.618Z,67.04
2019-03-24T12:20:36.506Z,67.23
2019-03-24T12:21:36.458Z,68.47
2019-03-24T12:22:36.398Z,68.85
2019-03-24T12:23:36.351Z,67.42
2019-03-24T12:24:36.328Z,68.09
2019-03-24T12:25:36.250Z,68.28
2019-03-24T12:26:36.198Z,68.66
2019-03-24T12:27:36.146Z,67.80
2019-03-24T12:28:36.097Z,66.28
2019-03-24T12:29:36.068Z,66.41
2019-03-24T12:30:35.997Z,66.98
2019-03-24T12:31:35.937Z,66.78
2019-03-24T12:32:35.892Z,65.64
2019-03-24T12:33:35.843Z,66.41
2019-03-24T12:34:35.811Z,64.78
2019-03-24T12:35:35.739Z,63.73
2019-03-24T12:36:35.691Z,65.55
2019-03-24T12:37:35.637Z,66.12
2019-03-24T12:38:35.587Z,64.69
2019-03-24T12:39:35.580Z,63.73
2019-03-24T12:40:35.484Z,63.51
2019-03-24T12:41:35.435Z,63.42
2019-03-24T12:42:35.397Z,63.51
2019-03-24T12:43:35.337Z,63.13
2019-03-24T12:44:35.301Z,64.09
2019-03-24T12:45:35.231Z,63.32
2019-03-24T12:46:35.178Z,63.23
2019-03-24T12:47:35.127Z,64.37
2019-03-24T12:48:35.080Z,63.70
2019-03-24T12:49:35.048Z,63.42
2019-03-24T12:50:34.980Z,63.32
2019-03-24T12:51:34.929Z,63.51